LFLY 301030Z AUTO 30004KT 260V030 CAVOK 22/08 Q1017

ElémentsDécodage
LFLY Station météo située sur l'aérodrome de LYON Bron
301030Z émis le 30 du mois à 10h30 UTC
AUTO Bulletin édité par un automate
30004KT vent du 300°, 04 noeuds
260V030 vent de direction variable entre 260° et 030°
CAVOK Ceiling And Visibility OK
- Visibilité de 10 Km ou plus
- Pas de nuage au-dessous de 1500m ou au-dessous de l'altitude minimale du secteur la plus élevée (si>1500m) et absence de CB
- pas de temps présent significatif
22/08 température 22°C, point de rosée 08°C
 soit une humidité relative de 41%
Q1017 la pression au niveau de la mer (QNH) est de 1017 hPa